KBVU

Boulder City Municipal Airport

Boulder City, Nevada, USA
METAR KBVU 181115Z AUTO 03004KT 10SM FEW034 FEW041 FEW050 11/M01 A3016 RMK AO2
Observed Flight Rules
Oct-18 @ 11:15 UTC (15 minutes ago) Visual Flight Rules
Wind Visibility Clouds
30° at 4 knots 10 miles
  • Few at 3,400' AGL
  • Few at 4,100' AGL
  • Few at 5,000' AGL
Temperatures Readings
Current 11°C / 52°F
Dewpoint -1°C / 30°F
Humidity 44%
Altimeter 30.16" Hg
Pressure 1021 hPa
Elevation 671
METAR KBVU 181115Z AUTO 03004KT 10SM FEW034 FEW041 FEW050 11/M01 A3016 RMK AO2
Observed Flight Rules
Oct-18 @ 11:15 UTC
(15 minutes ago)
VFR
Wind Visibility
30° at 4 knots 10 miles
Clouds
  • Few at 3,400' AGL
  • Few at 4,100' AGL
  • Few at 5,000' AGL
Temperature Dewpoint
11°C / 52°F -1°C / 30°F
Humidity Altimeter Pressure
44% 30.16" Hg 1021 hPa